Mont-Saint-Hilaire, Canada
Current Conditions -  °F | °C
As of 7:00 PM on Friday 24 Oct 2014 (Local Time) from CYHU Reporting Station
Clear Clear  
Wind Chill: 44°   Ceiling: Unl
Heat Index: 46°   Visibility: 9mi
Dew Point: 39°   Wind: 6mph
Humidity: 76%   Direction: 220°SW
Pressure: 29.83"   Gusts: NA
Location:  45.53°N, 73.17°W
Report Text: CYHU 242300Z AUTO 22005KT 9SM CLR 08/04 A2983 RMK SLP101
Loading
Personal Weather Stations






























Interactive Weather Map
Tropical Storm Tracking
New forecast layout! Learn more

10-Day Weather Forecast

Advertisements
Track Severe Weather on mobile